createdAt,value
2022-08-05T00:04:14.218Z,26.63
2022-08-05T00:08:34.364Z,26.65
2022-08-05T00:12:55.922Z,26.54
2022-08-05T00:17:28.616Z,26.66
2022-08-05T00:21:44.666Z,26.58
2022-08-05T00:26:00.901Z,26.56
2022-08-05T00:30:17.785Z,26.54
2022-08-05T00:34:54.016Z,26.68
2022-08-05T00:39:13.993Z,26.59
2022-08-05T00:43:46.854Z,26.58
2022-08-05T00:48:06.265Z,26.56
2022-08-05T00:52:28.534Z,26.36
2022-08-05T00:56:51.538Z,26.43
2022-08-05T01:01:08.900Z,26.49
2022-08-05T01:05:27.384Z,26.52
2022-08-05T01:09:43.681Z,26.38
2022-08-05T01:14:34.786Z,26.29
2022-08-05T01:18:56.612Z,26.29
2022-08-05T01:23:34.864Z,26.21
2022-08-05T01:28:10.349Z,26.10
2022-08-05T01:32:27.922Z,26.12
2022-08-05T01:36:47.669Z,26.02
2022-08-05T01:41:04.760Z,26.08
2022-08-05T01:45:23.658Z,26.04
2022-08-05T01:50:00.272Z,26.02
2022-08-05T01:54:19.665Z,25.91
2022-08-05T01:58:45.111Z,25.97
2022-08-05T02:03:06.933Z,25.95
2022-08-05T02:07:47.230Z,25.98
2022-08-05T02:12:19.238Z,25.78
2022-08-05T02:16:52.248Z,25.69
2022-08-05T02:21:21.911Z,25.69
2022-08-05T02:25:49.045Z,25.42
2022-08-05T02:30:10.667Z,25.45
2022-08-05T02:34:30.159Z,25.06
2022-08-05T02:38:53.237Z,24.70
2022-08-05T02:43:14.105Z,24.57
2022-08-05T02:48:06.594Z,24.51
2022-08-05T02:52:29.953Z,24.32
2022-08-05T02:56:47.278Z,24.32
2022-08-05T03:01:04.647Z,23.96
2022-08-05T03:05:21.669Z,23.90
2022-08-05T03:09:57.577Z,23.81
2022-08-05T03:14:13.872Z,23.66
2022-08-05T03:18:30.858Z,23.72
2022-08-05T03:22:50.109Z,23.67
2022-08-05T03:27:06.843Z,23.57
2022-08-05T03:31:55.890Z,23.36
2022-08-05T03:35:59.912Z,23.30
2022-08-05T03:40:24.146Z,23.33
2022-08-05T03:44:40.747Z,23.21
2022-08-05T03:48:56.824Z,23.08
2022-08-05T03:55:53.788Z,23.08
2022-08-05T03:57:58.347Z,23.42
2022-08-05T04:02:17.390Z,23.39
2022-08-05T04:06:37.539Z,23.52
2022-08-05T04:10:53.631Z,23.90
2022-08-05T04:15:15.527Z,24.22
2022-08-05T04:19:42.075Z,24.09
2022-08-05T04:24:06.438Z,24.34
2022-08-05T04:28:28.494Z,24.32
2022-08-05T04:32:47.887Z,24.63
2022-08-05T04:37:04.495Z,24.73
2022-08-05T04:41:21.071Z,24.86
2022-08-05T04:45:55.042Z,25.05
2022-08-05T04:50:11.869Z,25.10
2022-08-05T04:54:27.967Z,25.18
2022-08-05T04:58:44.329Z,25.18
2022-08-05T05:03:03.662Z,25.24
2022-08-05T05:07:23.765Z,25.31
2022-08-05T05:11:41.521Z,25.52
2022-08-05T05:16:06.951Z,25.62
2022-08-05T05:20:23.247Z,25.61
2022-08-05T05:24:57.012Z,25.83
2022-08-05T05:29:15.302Z,25.73
2022-08-05T05:33:31.453Z,25.76
2022-08-05T05:38:09.260Z,25.92
2022-08-05T05:42:29.033Z,26.05
2022-08-05T05:46:45.091Z,26.21
2022-08-05T05:51:15.181Z,26.21
2022-08-05T05:55:51.690Z,26.49
2022-08-05T06:00:11.636Z,26.48
2022-08-05T06:04:27.739Z,26.84
2022-08-05T06:08:44.536Z,26.91
2022-08-05T06:13:05.468Z,27.11
2022-08-05T06:17:24.635Z,27.18
2022-08-05T06:21:49.415Z,27.31
2022-08-05T06:26:12.553Z,27.45
2022-08-05T06:30:30.104Z,27.44
2022-08-05T06:34:47.064Z,27.51
2022-08-05T06:39:03.251Z,27.76
2022-08-05T06:43:57.867Z,27.72
2022-08-05T06:48:36.309Z,28.13
2022-08-05T06:52:36.784Z,28.27
2022-08-05T06:57:13.935Z,28.56
2022-08-05T07:01:32.279Z,28.70
2022-08-05T07:05:48.601Z,28.65
2022-08-05T07:10:07.106Z,28.70
2022-08-05T07:14:42.378Z,29.16
2022-08-05T07:19:00.342Z,29.35
2022-08-05T07:23:26.284Z,29.48
2022-08-05T07:27:58.422Z,29.70
2022-08-05T07:32:18.627Z,29.84
2022-08-05T07:36:42.638Z,29.96
2022-08-05T07:41:00.356Z,30.22
2022-08-05T07:45:31.162Z,30.08
2022-08-05T07:49:57.056Z,30.66
2022-08-05T07:54:15.142Z,30.73
2022-08-05T07:58:57.593Z,30.44
2022-08-05T08:03:15.935Z,31.02
2022-08-05T08:07:39.609Z,31.48
2022-08-05T08:12:20.246Z,31.84
2022-08-05T08:16:50.938Z,31.94
2022-08-05T08:21:09.544Z,32.07
2022-08-05T08:25:59.097Z,32.31
2022-08-05T08:30:29.727Z,32.62
2022-08-05T08:34:47.661Z,32.68
2022-08-05T08:39:03.809Z,32.41
2022-08-05T08:45:19.143Z,32.89
2022-08-05T08:48:12.725Z,33.26
2022-08-05T08:52:35.861Z,33.52
2022-08-05T08:56:54.268Z,33.56
2022-08-05T09:01:16.018Z,33.88
2022-08-05T09:05:38.837Z,34.28
2022-08-05T09:10:08.944Z,34.54
2022-08-05T09:14:56.990Z,34.45
2022-08-05T09:19:01.591Z,34.29
2022-08-05T09:23:22.886Z,34.75
2022-08-05T09:28:04.774Z,34.94
2022-08-05T09:32:50.233Z,34.72
2022-08-05T09:36:59.795Z,35.41
2022-08-05T09:41:16.299Z,35.38
2022-08-05T09:46:07.277Z,35.95
2022-08-05T09:50:13.522Z,36.06
2022-08-05T09:54:35.630Z,36.05
2022-08-05T09:59:04.194Z,36.56
2022-08-05T10:03:20.837Z,37.00
2022-08-05T10:08:36.586Z,37.08
2022-08-05T10:12:33.351Z,37.42
2022-08-05T10:17:00.023Z,37.84
2022-08-05T10:21:16.602Z,38.25
2022-08-05T10:25:34.743Z,38.13
2022-08-05T10:30:40.842Z,38.55
2022-08-05T10:34:31.005Z,38.55
2022-08-05T10:38:48.517Z,38.69
2022-08-05T10:43:35.922Z,39.01
2022-08-05T10:48:29.904Z,39.18
2022-08-05T10:53:01.113Z,39.45
2022-08-05T10:57:31.815Z,39.62
2022-08-05T11:01:55.233Z,39.55
2022-08-05T11:06:21.354Z,39.75
2022-08-05T11:10:49.961Z,39.65
2022-08-05T11:15:20.252Z,39.38
2022-08-05T11:20:16.760Z,39.97
2022-08-05T11:24:30.554Z,39.97
2022-08-05T11:28:54.981Z,40.15
2022-08-05T11:33:48.176Z,40.75
2022-08-05T11:38:28.001Z,40.89
2022-08-05T11:42:41.985Z,41.07
2022-08-05T11:47:10.892Z,41.29
2022-08-05T11:51:44.224Z,41.30
2022-08-05T11:56:05.708Z,40.66
2022-08-05T12:00:31.303Z,41.16
2022-08-05T12:04:59.712Z,41.31
2022-08-05T12:09:19.811Z,40.38
2022-08-05T12:13:49.057Z,40.93
2022-08-05T12:18:10.566Z,41.56
2022-08-05T12:22:29.936Z,41.37
2022-08-05T12:26:53.658Z,41.74
2022-08-05T12:31:10.137Z,42.31
2022-08-05T12:35:37.028Z,42.30
2022-08-05T12:40:03.499Z,42.57
2022-08-05T12:44:33.469Z,42.58
2022-08-05T12:48:57.377Z,42.31
2022-08-05T12:53:17.177Z,41.77
2022-08-05T12:58:39.101Z,41.84
2022-08-05T13:02:16.417Z,42.26
2022-08-05T13:06:33.567Z,42.06
2022-08-05T13:10:50.309Z,42.47
2022-08-05T13:15:16.300Z,42.85
2022-08-05T13:19:52.396Z,42.96
2022-08-05T13:24:09.171Z,42.44
2022-08-05T13:28:25.145Z,42.57
2022-08-05T13:32:42.268Z,42.85
2022-08-05T13:37:07.334Z,42.50
2022-08-05T13:41:25.794Z,43.22
2022-08-05T13:45:51.892Z,43.61
2022-08-05T13:50:11.311Z,43.15
2022-08-05T13:54:31.254Z,43.53
2022-08-05T13:58:52.843Z,43.84
2022-08-05T14:03:09.520Z,43.55
2022-08-05T14:08:00.228Z,43.73
2022-08-05T14:12:17.490Z,43.93
2022-08-05T14:16:34.794Z,43.51
2022-08-05T14:20:54.808Z,43.51
2022-08-05T14:25:19.165Z,43.70
2022-08-05T14:29:37.933Z,44.02
2022-08-05T14:33:59.542Z,44.17
2022-08-05T14:38:32.911Z,44.02
2022-08-05T14:42:52.332Z,43.83
2022-08-05T14:47:08.823Z,44.33
2022-08-05T14:51:26.477Z,44.30
2022-08-05T14:55:52.079Z,43.88
2022-08-05T15:00:09.286Z,44.21
2022-08-05T15:04:27.381Z,43.97
2022-08-05T15:08:58.667Z,43.82
2022-08-05T15:13:19.355Z,44.10
2022-08-05T15:17:48.614Z,44.11
2022-08-05T15:22:09.167Z,43.40
2022-08-05T15:26:32.182Z,43.59
2022-08-05T15:30:52.956Z,43.07
2022-08-05T15:35:10.723Z,42.66
2022-08-05T15:40:58.968Z,42.74
2022-08-05T15:44:04.761Z,42.92
2022-08-05T15:48:21.203Z,42.86
2022-08-05T15:52:53.089Z,42.91
2022-08-05T15:57:11.242Z,42.95
2022-08-05T16:01:39.401Z,42.82
2022-08-05T16:05:56.183Z,42.72
2022-08-05T16:10:12.131Z,42.48
2022-08-05T16:14:28.197Z,42.30
2022-08-05T16:18:52.758Z,42.05
2022-08-05T16:23:09.355Z,41.52
2022-08-05T16:27:47.164Z,41.46
2022-08-05T16:32:02.944Z,41.14
2022-08-05T16:36:23.805Z,41.42
2022-08-05T16:40:40.186Z,41.05
2022-08-05T16:44:57.055Z,41.02
2022-08-05T16:49:13.534Z,40.42
2022-08-05T16:53:32.043Z,40.34
2022-08-05T16:57:59.915Z,40.04
2022-08-05T17:02:17.115Z,39.89
2022-08-05T17:06:34.044Z,39.50
2022-08-05T17:10:50.301Z,39.51
2022-08-05T17:15:07.636Z,39.19
2022-08-05T17:19:25.259Z,39.08
2022-08-05T17:24:05.963Z,38.89
2022-08-05T17:28:17.312Z,38.38
2022-08-05T17:32:34.585Z,37.71
2022-08-05T17:36:51.292Z,37.51
2022-08-05T17:41:22.954Z,37.34
2022-08-05T17:45:44.554Z,36.79
2022-08-05T17:50:10.174Z,36.47
2022-08-05T17:54:26.991Z,36.01
2022-08-05T17:58:43.212Z,35.98
2022-08-05T18:03:00.563Z,35.71
2022-08-05T18:07:16.601Z,35.29
2022-08-05T18:11:33.893Z,34.96
2022-08-05T18:15:51.353Z,34.65
2022-08-05T18:20:07.939Z,34.57
2022-08-05T18:24:30.244Z,34.33
2022-08-05T18:28:46.586Z,34.21
2022-08-05T18:33:05.302Z,33.87
2022-08-05T18:37:34.399Z,33.58
2022-08-05T18:42:03.751Z,33.47
2022-08-05T18:46:26.056Z,33.27
2022-08-05T18:52:06.506Z,32.93
2022-08-05T18:55:39.910Z,32.91
2022-08-05T19:00:02.155Z,32.76
2022-08-05T19:04:23.983Z,32.57
2022-08-05T19:08:40.406Z,32.32
2022-08-05T19:12:59.609Z,31.98
2022-08-05T19:17:19.126Z,31.70
2022-08-05T19:21:36.122Z,31.64
2022-08-05T19:25:52.700Z,31.77
2022-08-05T19:30:21.001Z,31.56
2022-08-05T19:34:42.063Z,31.59
2022-08-05T19:39:11.563Z,31.40
2022-08-05T19:44:04.546Z,31.16
2022-08-05T19:48:14.599Z,31.11
2022-08-05T19:52:32.878Z,30.92
2022-08-05T19:56:49.481Z,30.81
2022-08-05T20:01:05.938Z,30.77
2022-08-05T20:05:24.864Z,30.76
2022-08-05T20:09:53.558Z,30.57
2022-08-05T20:14:16.559Z,30.45
2022-08-05T20:18:36.528Z,30.41
2022-08-05T20:22:52.755Z,30.33
2022-08-05T20:27:11.358Z,30.24
2022-08-05T20:31:43.074Z,30.14
2022-08-05T20:36:04.931Z,30.23
2022-08-05T20:40:20.939Z,30.11
2022-08-05T20:44:37.934Z,30.10
2022-08-05T20:48:54.771Z,29.98
2022-08-05T20:53:15.918Z,29.77
2022-08-05T20:57:46.921Z,29.61
2022-08-05T21:02:05.148Z,29.42
2022-08-05T21:06:27.753Z,29.32
2022-08-05T21:10:48.886Z,29.19
2022-08-05T21:15:05.562Z,29.11
2022-08-05T21:19:23.503Z,28.89
2022-08-05T21:23:39.595Z,28.70
2022-08-05T21:27:55.527Z,28.74
2022-08-05T21:32:11.717Z,28.75
2022-08-05T21:36:33.249Z,28.42
2022-08-05T21:40:49.317Z,28.46
2022-08-05T21:45:05.788Z,28.39
2022-08-05T21:49:58.637Z,28.23
2022-08-05T21:54:04.038Z,28.10
2022-08-05T21:58:28.794Z,28.24
2022-08-05T22:02:48.450Z,28.10
2022-08-05T22:07:04.404Z,28.08
2022-08-05T22:11:35.445Z,28.11
2022-08-05T22:16:01.499Z,27.83
2022-08-05T22:20:25.381Z,27.68
2022-08-05T22:25:00.598Z,27.54
2022-08-05T22:29:17.493Z,27.51
2022-08-05T22:33:57.196Z,27.58
2022-08-05T22:38:11.269Z,27.27
2022-08-05T22:42:27.856Z,27.22
2022-08-05T22:46:45.158Z,27.26
2022-08-05T22:51:01.282Z,27.06
2022-08-05T22:55:24.048Z,27.28
2022-08-05T22:59:47.392Z,27.10
2022-08-05T23:04:06.595Z,26.96
2022-08-05T23:08:23.552Z,26.83
2022-08-05T23:12:43.821Z,26.89
2022-08-05T23:17:24.170Z,26.90
2022-08-05T23:21:48.965Z,26.98
2022-08-05T23:26:05.099Z,26.74
2022-08-05T23:30:21.114Z,26.59
2022-08-05T23:34:43.189Z,26.58
2022-08-05T23:38:59.499Z,26.46
2022-08-05T23:43:24.773Z,26.30
2022-08-05T23:47:53.565Z,26.17
2022-08-05T23:52:28.443Z,26.07
2022-08-05T23:56:44.585Z,26.01
